General Mitchell International Airport
KMKE : now visible

Aeroporto :











RITROVATECI SU...

 
LOGIN :

Iscrizione | Disclaimer

   EN    FR    IT 

 









Sommario :    VFR   VFR Marginale   IFR   IFR Intensivo   IFR Molto Intensivo
Visibilità : 
Base nubi : 
>= 8 km
>= 3000ft
5 / 8 km
1000 / 3000 ft
1500m / 5 km
500 / 1000 ft
800 / 1500m
200 / 500 ft
< 800m
< 200 ft
Simboli :   Temporali  Nebbia  Neve Forte  Precipitazioni Forti  Vento > 20 kt







- Altitudine del aeroporto : 723 ft
- Codice IATA : MKE


KMKE - General Mitchell International

ULTIMO METAR :
  • 201552Z 12005KT 10SM FEW050 SCT120 OVC250 25/20 A3000 RMK AO2 SLP153 T02500200

METARs OBSOLETI :
  • 201452Z 00000KT 10SM FEW040 OVC210 24/21 A2999 RMK AO2 SLP149 T02440211 58006
  • 201352Z 17003KT 10SM SCT032 OVC220 23/21 A3001 RMK AO2 SLP157 T02330211

TAF KMKE
Valido dal 20 a 15 ore il 21 a 18 ore UTC


201454Z 2015/2118 VRB03KT P6SM SCT030 BKN200
FM201700 18006KT P6SM SCT040 BKN090
FM210200 VRB03KT P6SM SCT080
FM211300 33007KT P6SM BKN020
Nessun NOTAM noto per questo aeroporto.



MetMap, La meteo Aeronautica in un colpo d'occhio ! - Copyright ORBIFLY Dicembre 2007 - Disclaimer

ORBIFLY MET'MAP TEAM :

Programmazione e sviluppo : Alexandra Zaïnal
Concezione e sviluppo : Baudouin d'Aumeries
Co-Programmazione e sviluppo : Marc-Olivier Méhu
Supporto tecnico e logistico : Manuel Goepfert
Aiuto per la traduzione : Arnaldo La Scala

Contatto : metmap@orbifly.com




FONTI E CREDITI :

   NOAA       Earth
Advisory